createdAt,value
2023-02-13T00:00:46.521Z,1.60
2023-02-13T00:03:13.451Z,1.60
2023-02-13T00:05:40.183Z,1.50
2023-02-13T00:08:06.935Z,1.50
2023-02-13T00:10:33.635Z,1.50
2023-02-13T00:13:00.405Z,1.50
2023-02-13T00:15:27.114Z,1.50
2023-02-13T00:17:53.763Z,1.50
2023-02-13T00:20:20.564Z,1.50
2023-02-13T00:22:47.213Z,1.50
2023-02-13T00:25:13.990Z,1.40
2023-02-13T00:27:40.652Z,1.40
2023-02-13T00:30:07.965Z,1.40
2023-02-13T00:32:34.604Z,1.40
2023-02-13T00:35:01.231Z,1.40
2023-02-13T00:37:27.885Z,1.40
2023-02-13T00:39:54.509Z,1.40
2023-02-13T00:42:24.006Z,1.40
2023-02-13T00:44:50.728Z,1.30
2023-02-13T00:47:17.347Z,1.30
2023-02-13T00:49:44.006Z,1.30
2023-02-13T00:52:10.878Z,1.30
2023-02-13T00:54:37.526Z,1.30
2023-02-13T00:57:04.420Z,1.30
2023-02-13T00:59:31.079Z,1.30
2023-02-13T01:01:57.778Z,1.30
2023-02-13T01:04:24.550Z,1.30
2023-02-13T01:06:51.316Z,1.30
2023-02-13T01:09:17.943Z,1.30
2023-02-13T01:14:28.010Z,1.30
2023-02-13T01:17:14.164Z,1.30
2023-02-13T01:19:41.435Z,1.30
2023-02-13T01:22:08.901Z,1.30
2023-02-13T01:24:35.534Z,1.30
2023-02-13T01:27:02.417Z,1.30
2023-02-13T01:29:42.384Z,1.20
2023-02-13T01:32:09.122Z,1.20
2023-02-13T01:34:35.892Z,1.30
2023-02-13T01:37:07.046Z,1.30
2023-02-13T01:39:33.690Z,1.30
2023-02-13T01:42:00.377Z,1.20
2023-02-13T01:44:54.127Z,1.20
2023-02-13T01:47:29.354Z,1.20
2023-02-13T01:50:11.065Z,1.20
2023-02-13T01:52:41.597Z,1.20
2023-02-13T01:55:10.882Z,1.10
2023-02-13T01:57:40.845Z,1.10
2023-02-13T02:00:13.756Z,1.10
2023-02-13T02:02:47.668Z,1.10
2023-02-13T02:05:16.958Z,1.10
2023-02-13T02:07:44.391Z,1.10
2023-02-13T02:10:18.421Z,1.10
2023-02-13T02:13:11.918Z,1.10
2023-02-13T02:15:38.758Z,1.10
2023-02-13T02:18:23.247Z,1.10
2023-02-13T02:21:15.670Z,1.00
2023-02-13T02:24:40.546Z,1.00
2023-02-13T02:27:10.046Z,1.00
2023-02-13T02:29:49.062Z,1.00
2023-02-13T02:32:24.776Z,1.00
2023-02-13T02:35:14.228Z,1.00
2023-02-13T02:37:53.956Z,1.00
2023-02-13T02:40:46.740Z,1.00
2023-02-13T02:43:29.948Z,1.10
2023-02-13T02:46:22.870Z,1.10
2023-02-13T02:49:15.366Z,1.10
2023-02-13T02:52:01.104Z,1.10
2023-02-13T02:54:53.304Z,1.10
2023-02-13T02:57:49.906Z,1.00
2023-02-13T03:00:41.762Z,1.00
2023-02-13T03:03:42.168Z,1.00
2023-02-13T03:06:45.417Z,1.00
2023-02-13T03:09:56.389Z,1.00
2023-02-13T03:12:44.622Z,1.00
2023-02-13T03:15:11.511Z,1.10
2023-02-13T03:17:57.073Z,1.10
2023-02-13T03:21:01.492Z,1.10
2023-02-13T03:23:52.792Z,1.10
2023-02-13T03:26:45.536Z,1.10
2023-02-13T03:29:45.895Z,1.20
2023-02-13T03:32:18.655Z,1.20
2023-02-13T03:35:13.001Z,1.20
2023-02-13T03:37:55.560Z,1.30
2023-02-13T03:40:59.384Z,1.30
2023-02-13T03:43:37.244Z,1.30
2023-02-13T03:46:04.911Z,1.30
2023-02-13T03:48:55.979Z,1.30
2023-02-13T03:51:32.829Z,1.30
2023-02-13T03:54:05.148Z,1.30
2023-02-13T03:56:55.063Z,1.40
2023-02-13T03:59:29.115Z,1.30
2023-02-13T04:02:31.136Z,1.30
2023-02-13T04:05:32.335Z,1.40
2023-02-13T04:08:08.611Z,1.40
2023-02-13T04:10:39.527Z,1.50
2023-02-13T04:13:22.885Z,1.40
2023-02-13T04:16:13.468Z,1.50
2023-02-13T04:18:40.656Z,1.50
2023-02-13T04:21:22.852Z,1.50
2023-02-13T04:24:06.731Z,1.50
2023-02-13T04:26:37.281Z,1.50
2023-02-13T04:29:41.900Z,1.50
2023-02-13T04:32:10.702Z,1.50
2023-02-13T04:34:37.849Z,1.50
2023-02-13T04:37:21.420Z,1.50
2023-02-13T04:39:48.027Z,1.50
2023-02-13T04:42:14.656Z,1.50
2023-02-13T04:44:41.257Z,1.40
2023-02-13T04:47:07.964Z,1.40
2023-02-13T04:49:40.468Z,1.40
2023-02-13T04:52:07.066Z,1.40
2023-02-13T04:54:33.700Z,1.40
2023-02-13T04:57:07.854Z,1.40
2023-02-13T04:59:34.488Z,1.40
2023-02-13T05:02:01.200Z,1.50
2023-02-13T05:04:28.854Z,1.50
2023-02-13T05:06:55.521Z,1.50
2023-02-13T05:09:22.360Z,1.50
2023-02-13T05:11:52.866Z,1.50
2023-02-13T05:14:19.981Z,1.60
2023-02-13T05:16:47.427Z,1.50
2023-02-13T05:19:21.174Z,1.50
2023-02-13T05:22:20.604Z,1.50
2023-02-13T05:24:47.250Z,1.50
2023-02-13T05:27:13.900Z,1.40
2023-02-13T05:29:53.821Z,1.40
2023-02-13T05:32:20.674Z,1.40
2023-02-13T05:34:47.414Z,1.40
2023-02-13T05:37:25.030Z,1.40
2023-02-13T05:39:51.676Z,1.30
2023-02-13T05:42:18.390Z,1.20
2023-02-13T05:44:45.025Z,1.30
2023-02-13T05:47:11.688Z,1.30
2023-02-13T05:49:47.882Z,1.30
2023-02-13T05:52:14.847Z,1.30
2023-02-13T05:54:41.540Z,1.30
2023-02-13T05:57:11.076Z,1.30
2023-02-13T05:59:37.792Z,1.30
2023-02-13T06:02:04.454Z,1.30
2023-02-13T06:04:46.617Z,1.30
2023-02-13T06:07:20.722Z,1.30
2023-02-13T06:09:47.401Z,1.30
2023-02-13T06:12:14.080Z,1.30
2023-02-13T06:14:40.803Z,1.30
2023-02-13T06:17:07.433Z,1.30
2023-02-13T06:19:34.061Z,1.40
2023-02-13T06:22:00.781Z,1.30
2023-02-13T06:24:34.633Z,1.30
2023-02-13T06:27:01.243Z,1.30
2023-02-13T06:29:27.954Z,1.30
2023-02-13T06:31:54.595Z,1.30
2023-02-13T06:34:21.255Z,1.30
2023-02-13T06:36:59.437Z,1.30
2023-02-13T06:39:32.170Z,1.30
2023-02-13T06:41:58.817Z,1.30
2023-02-13T06:44:25.464Z,1.40
2023-02-13T06:46:55.074Z,1.40
2023-02-13T06:49:29.563Z,1.40
2023-02-13T06:52:16.781Z,1.40
2023-02-13T06:54:47.593Z,1.40
2023-02-13T06:57:15.155Z,1.40
2023-02-13T06:59:49.607Z,1.40
2023-02-13T07:02:54.372Z,1.40
2023-02-13T07:05:21.159Z,1.50
2023-02-13T07:08:01.642Z,1.50
2023-02-13T07:10:28.410Z,1.50
2023-02-13T07:13:05.438Z,1.50
2023-02-13T07:15:34.024Z,1.50
2023-02-13T07:18:01.174Z,1.50
2023-02-13T07:20:41.589Z,1.60
2023-02-13T07:23:08.288Z,1.60
2023-02-13T07:25:35.113Z,1.60
2023-02-13T07:28:06.270Z,1.70
2023-02-13T07:30:34.259Z,1.70
2023-02-13T07:33:02.183Z,1.80
2023-02-13T07:35:29.447Z,1.80
2023-02-13T07:37:56.643Z,1.90
2023-02-13T07:40:23.536Z,2.00
2023-02-13T07:42:50.271Z,2.10
2023-02-13T07:45:17.110Z,2.10
2023-02-13T07:47:44.150Z,2.20
2023-02-13T07:50:11.374Z,2.30
2023-02-13T07:52:38.240Z,2.40
2023-02-13T07:55:05.728Z,2.50
2023-02-13T07:57:33.304Z,2.60
2023-02-13T08:00:00.107Z,2.70
2023-02-13T08:02:26.798Z,2.80
2023-02-13T08:04:53.546Z,2.90
2023-02-13T08:07:20.379Z,3.00
2023-02-13T08:10:06.015Z,3.10
2023-02-13T08:12:35.892Z,3.20
2023-02-13T08:15:03.268Z,3.30
2023-02-13T08:17:30.020Z,3.40
2023-02-13T08:19:57.054Z,3.50
2023-02-13T08:22:23.794Z,3.60
2023-02-13T08:24:50.624Z,3.70
2023-02-13T08:27:17.518Z,3.70
2023-02-13T08:29:44.366Z,3.80
2023-02-13T08:32:11.229Z,4.00
2023-02-13T08:34:37.915Z,4.00
2023-02-13T08:37:11.043Z,4.10
2023-02-13T08:39:37.687Z,4.20
2023-02-13T08:42:04.450Z,4.30
2023-02-13T08:44:31.445Z,4.30
2023-02-13T08:46:58.179Z,4.40
2023-02-13T08:49:25.054Z,4.40
2023-02-13T08:51:51.717Z,4.50
2023-02-13T08:54:32.242Z,4.60
2023-02-13T08:56:58.891Z,4.60
2023-02-13T08:59:25.680Z,4.70
2023-02-13T09:01:59.387Z,4.80
2023-02-13T09:04:26.140Z,4.80
2023-02-13T09:06:52.930Z,4.90
2023-02-13T09:09:19.775Z,5.00
2023-02-13T09:11:46.397Z,5.10
2023-02-13T09:14:20.337Z,5.20
2023-02-13T09:16:47.190Z,5.20
2023-02-13T09:19:13.923Z,5.20
2023-02-13T09:21:44.517Z,5.30
2023-02-13T09:24:11.349Z,5.40
2023-02-13T09:26:38.062Z,5.40
2023-02-13T09:29:04.931Z,5.50
2023-02-13T09:31:31.763Z,5.40
2023-02-13T09:34:11.340Z,5.40
2023-02-13T09:36:37.996Z,5.40
2023-02-13T09:39:04.640Z,5.50
2023-02-13T09:41:42.883Z,5.40
2023-02-13T09:44:38.278Z,5.40
2023-02-13T09:47:20.349Z,5.60
2023-02-13T09:49:54.419Z,5.50
2023-02-13T09:52:21.423Z,5.60
2023-02-13T09:54:48.167Z,5.60
2023-02-13T09:57:51.872Z,5.80
2023-02-13T10:00:44.398Z,5.80
2023-02-13T10:03:19.991Z,5.90
2023-02-13T10:06:12.556Z,5.90
2023-02-13T10:08:59.452Z,6.10
2023-02-13T10:11:41.201Z,6.30
2023-02-13T10:14:16.644Z,6.30
2023-02-13T10:16:49.791Z,6.50
2023-02-13T10:19:41.914Z,6.60
2023-02-13T10:22:18.045Z,6.70
2023-02-13T10:25:08.853Z,6.60
2023-02-13T10:27:40.134Z,6.50
2023-02-13T10:30:17.410Z,6.50
2023-02-13T10:33:21.481Z,6.50
2023-02-13T10:36:01.410Z,6.40
2023-02-13T10:38:32.231Z,6.60
2023-02-13T10:41:06.517Z,6.60
2023-02-13T10:43:47.285Z,6.70
2023-02-13T10:46:33.567Z,6.70
2023-02-13T10:49:28.712Z,6.40
2023-02-13T10:52:16.242Z,6.40
2023-02-13T10:55:11.474Z,6.60
2023-02-13T10:57:56.434Z,6.70
2023-02-13T11:00:27.887Z,6.80
2023-02-13T11:02:56.548Z,6.80
2023-02-13T11:05:26.520Z,6.90
2023-02-13T11:07:53.155Z,6.60
2023-02-13T11:10:25.414Z,6.70
2023-02-13T11:12:52.620Z,6.90
2023-02-13T11:15:22.348Z,6.90
2023-02-13T11:17:51.138Z,7.10
2023-02-13T11:20:41.194Z,7.30
2023-02-13T11:23:47.431Z,7.40
2023-02-13T11:26:43.442Z,7.50
2023-02-13T11:29:20.983Z,7.60
2023-02-13T11:32:21.102Z,7.70
2023-02-13T11:34:51.092Z,7.80
2023-02-13T11:37:20.696Z,7.80
2023-02-13T11:39:51.297Z,7.90
2023-02-13T11:42:23.854Z,8.00
2023-02-13T11:44:55.006Z,8.00
2023-02-13T11:47:51.498Z,8.00
2023-02-13T11:50:27.338Z,7.80
2023-02-13T11:53:25.564Z,7.80
2023-02-13T11:56:03.119Z,7.50
2023-02-13T11:58:31.196Z,7.60
2023-02-13T12:01:19.664Z,7.60
2023-02-13T12:04:07.230Z,7.70
2023-02-13T12:06:39.811Z,7.70
2023-02-13T12:09:15.320Z,7.80
2023-02-13T12:12:12.148Z,7.80
2023-02-13T12:14:43.305Z,7.60
2023-02-13T12:17:32.568Z,7.70
2023-02-13T12:20:00.008Z,7.40
2023-02-13T12:22:58.659Z,7.20
2023-02-13T12:25:48.785Z,7.40
2023-02-13T12:28:17.299Z,7.40
2023-02-13T12:31:00.027Z,7.50
2023-02-13T12:33:49.654Z,7.80
2023-02-13T12:36:28.776Z,7.80
2023-02-13T12:39:18.860Z,7.80
2023-02-13T12:42:09.696Z,7.90
2023-02-13T12:44:42.312Z,7.90
2023-02-13T12:47:22.381Z,7.90
2023-02-13T12:50:23.211Z,8.00
2023-02-13T12:52:53.135Z,8.00
2023-02-13T12:55:25.887Z,8.20
2023-02-13T12:58:00.497Z,8.20
2023-02-13T13:00:41.855Z,8.30
2023-02-13T13:03:29.656Z,8.30
2023-02-13T13:06:19.795Z,8.50
2023-02-13T13:09:05.653Z,8.40
2023-02-13T13:11:47.675Z,8.40
2023-02-13T13:14:23.101Z,8.40
2023-02-13T13:17:08.390Z,8.50
2023-02-13T13:19:50.135Z,8.40
2023-02-13T13:22:30.390Z,8.50
2023-02-13T13:25:34.666Z,8.30
2023-02-13T13:28:23.975Z,8.40
2023-02-13T13:30:51.301Z,8.40
2023-02-13T13:33:20.764Z,8.40
2023-02-13T13:36:28.896Z,8.30
2023-02-13T13:39:26.619Z,8.50
2023-02-13T13:42:06.925Z,8.60
2023-02-13T13:44:51.609Z,8.60
2023-02-13T13:47:32.365Z,8.50
2023-02-13T13:50:01.051Z,8.50
2023-02-13T13:52:37.576Z,8.50
2023-02-13T13:55:05.267Z,8.60
2023-02-13T13:57:41.023Z,8.70
2023-02-13T14:00:14.009Z,8.70
2023-02-13T14:02:50.187Z,8.80
2023-02-13T14:05:32.861Z,8.70
2023-02-13T14:08:23.881Z,8.70
2023-02-13T14:10:50.534Z,8.80
2023-02-13T14:13:39.330Z,8.80
2023-02-13T14:16:12.332Z,8.90
2023-02-13T14:18:52.838Z,8.90
2023-02-13T14:21:26.289Z,8.90
2023-02-13T14:23:53.364Z,8.90
2023-02-13T14:26:33.946Z,8.90
2023-02-13T14:29:25.802Z,9.00
2023-02-13T14:31:58.100Z,8.90
2023-02-13T14:34:28.929Z,8.90
2023-02-13T14:37:10.382Z,8.90
2023-02-13T14:39:37.732Z,8.90
2023-02-13T14:42:28.514Z,8.80
2023-02-13T14:45:10.670Z,8.80
2023-02-13T14:47:53.344Z,8.70
2023-02-13T14:50:31.860Z,8.70
2023-02-13T14:53:14.354Z,8.70
2023-02-13T14:55:49.250Z,8.70
2023-02-13T14:58:36.723Z,8.60
2023-02-13T15:01:06.510Z,8.70
2023-02-13T15:03:48.607Z,8.60
2023-02-13T15:06:45.072Z,8.60
2023-02-13T15:09:20.887Z,8.60
2023-02-13T15:11:47.714Z,8.60
2023-02-13T15:14:35.983Z,8.50
2023-02-13T15:17:15.447Z,8.50
2023-02-13T15:19:52.275Z,8.40
2023-02-13T15:22:42.043Z,8.40
2023-02-13T15:25:09.319Z,8.30
2023-02-13T15:27:41.698Z,8.20
2023-02-13T15:30:26.901Z,8.20
2023-02-13T15:33:02.519Z,8.10
2023-02-13T15:35:32.003Z,8.10
2023-02-13T15:37:59.379Z,8.10
2023-02-13T15:40:32.028Z,8.10
2023-02-13T15:43:00.440Z,8.00
2023-02-13T15:45:29.452Z,7.90
2023-02-13T15:47:56.805Z,7.90
2023-02-13T15:50:35.873Z,7.80
2023-02-13T15:53:14.999Z,7.70
2023-02-13T15:55:41.665Z,7.70
2023-02-13T15:58:14.338Z,7.60
2023-02-13T16:00:43.102Z,7.50
2023-02-13T16:03:17.126Z,7.40
2023-02-13T16:05:46.486Z,7.40
2023-02-13T16:08:32.169Z,7.30
2023-02-13T16:11:38.704Z,7.20
2023-02-13T16:14:14.576Z,7.00
2023-02-13T16:16:57.887Z,6.90
2023-02-13T16:19:39.788Z,6.80
2023-02-13T16:22:35.755Z,6.70
2023-02-13T16:25:17.568Z,6.60
2023-02-13T16:27:55.315Z,6.40
2023-02-13T16:30:43.062Z,6.30
2023-02-13T16:33:12.596Z,6.20
2023-02-13T16:35:42.631Z,6.00
2023-02-13T16:38:29.306Z,5.90
2023-02-13T16:40:58.797Z,5.70
2023-02-13T16:43:34.638Z,5.60
2023-02-13T16:46:18.921Z,5.40
2023-02-13T16:48:56.422Z,5.40
2023-02-13T16:51:51.308Z,5.20
2023-02-13T16:54:17.999Z,5.10
2023-02-13T16:56:46.492Z,5.00
2023-02-13T16:59:53.388Z,4.90
2023-02-13T17:02:34.103Z,4.70
2023-02-13T17:05:09.910Z,4.60
2023-02-13T17:07:50.192Z,4.60
2023-02-13T17:10:28.921Z,4.50
2023-02-13T17:12:59.527Z,4.40
2023-02-13T17:15:28.596Z,4.20
2023-02-13T17:17:58.728Z,4.30
2023-02-13T17:20:31.059Z,4.20
2023-02-13T17:23:07.245Z,4.20
2023-02-13T17:25:36.373Z,4.10
2023-02-13T17:28:14.331Z,4.00
2023-02-13T17:30:41.975Z,4.00
2023-02-13T17:33:26.206Z,3.90
2023-02-13T17:35:53.943Z,3.90
2023-02-13T17:38:21.106Z,3.80
2023-02-13T17:40:48.320Z,3.70
2023-02-13T17:43:17.369Z,3.60
2023-02-13T17:45:45.422Z,3.60
2023-02-13T17:48:12.187Z,3.50
2023-02-13T17:50:39.490Z,3.40
2023-02-13T17:53:08.627Z,3.40
2023-02-13T17:55:35.950Z,3.30
2023-02-13T17:58:02.842Z,3.30
2023-02-13T18:00:32.912Z,3.30
2023-02-13T18:03:00.597Z,3.30
2023-02-13T18:05:28.366Z,3.30
2023-02-13T18:07:55.699Z,3.30
2023-02-13T18:10:25.278Z,3.30
2023-02-13T18:12:53.796Z,3.30
2023-02-13T18:15:20.621Z,3.20
2023-02-13T18:17:47.766Z,3.20
2023-02-13T18:20:17.737Z,3.20
2023-02-13T18:22:44.533Z,3.20
2023-02-13T18:25:11.556Z,3.20
2023-02-13T18:27:38.268Z,3.20
2023-02-13T18:30:06.213Z,3.20
2023-02-13T18:32:32.868Z,3.20
2023-02-13T18:34:59.593Z,3.20
2023-02-13T18:37:29.342Z,3.20
2023-02-13T18:39:56.829Z,3.20
2023-02-13T18:42:23.654Z,3.20
2023-02-13T18:44:50.634Z,3.20
2023-02-13T18:47:17.547Z,3.20
2023-02-13T18:49:46.373Z,3.20
2023-02-13T18:52:13.064Z,3.10
2023-02-13T18:54:39.856Z,3.10
2023-02-13T18:57:06.895Z,3.10
2023-02-13T18:59:33.638Z,3.10
2023-02-13T19:02:02.087Z,3.10
2023-02-13T19:04:29.953Z,3.00
2023-02-13T19:06:56.882Z,3.00
2023-02-13T19:09:23.694Z,3.00
2023-02-13T19:11:51.608Z,3.10
2023-02-13T19:14:18.635Z,3.00
2023-02-13T19:16:45.480Z,3.00
2023-02-13T19:19:12.242Z,3.00
2023-02-13T19:21:39.675Z,3.00
2023-02-13T19:24:08.958Z,3.00
2023-02-13T19:26:36.698Z,3.00
2023-02-13T19:29:03.931Z,3.00
2023-02-13T19:31:32.473Z,3.00
2023-02-13T19:34:00.654Z,3.00
2023-02-13T19:36:29.159Z,2.90
2023-02-13T19:38:58.297Z,2.90
2023-02-13T19:41:25.153Z,2.80
2023-02-13T19:43:55.479Z,2.80
2023-02-13T19:46:28.624Z,2.90
2023-02-13T19:48:55.362Z,2.90
2023-02-13T19:51:42.009Z,2.80
2023-02-13T19:54:10.986Z,2.80
2023-02-13T19:56:39.536Z,2.80
2023-02-13T19:59:07.836Z,2.70
2023-02-13T20:01:34.760Z,2.70
2023-02-13T20:04:01.528Z,2.60
2023-02-13T20:06:35.002Z,2.60
2023-02-13T20:09:07.479Z,2.60
2023-02-13T20:11:34.208Z,2.50
2023-02-13T20:14:01.009Z,2.50
2023-02-13T20:16:32.751Z,2.50
2023-02-13T20:19:07.665Z,2.50
2023-02-13T20:21:35.286Z,2.50
2023-02-13T20:24:05.026Z,2.50
2023-02-13T20:26:32.084Z,2.50
2023-02-13T20:28:59.673Z,2.60
2023-02-13T20:31:27.350Z,2.60
2023-02-13T20:33:58.058Z,2.60
2023-02-13T20:36:27.584Z,2.60
2023-02-13T20:38:56.669Z,2.70
2023-02-13T20:41:26.271Z,2.60
2023-02-13T20:43:56.767Z,2.60
2023-02-13T20:46:29.191Z,2.60
2023-02-13T20:48:55.870Z,2.60
2023-02-13T20:51:22.471Z,2.70
2023-02-13T20:53:49.211Z,2.70
2023-02-13T20:56:19.271Z,2.70
2023-02-13T20:58:48.286Z,2.60
2023-02-13T21:01:35.381Z,2.60
2023-02-13T21:04:02.502Z,2.50
2023-02-13T21:06:31.937Z,2.50
2023-02-13T21:08:59.145Z,2.50
2023-02-13T21:11:28.158Z,2.50
2023-02-13T21:13:59.085Z,2.50
2023-02-13T21:16:28.935Z,2.50
2023-02-13T21:18:58.376Z,2.50
2023-02-13T21:21:33.584Z,2.40
2023-02-13T21:24:07.943Z,2.40
2023-02-13T21:26:35.607Z,2.40
2023-02-13T21:29:02.674Z,2.30
2023-02-13T21:31:32.487Z,2.20
2023-02-13T21:34:08.694Z,2.20
2023-02-13T21:36:36.374Z,2.00
2023-02-13T21:39:11.664Z,2.00
2023-02-13T21:41:42.818Z,2.00
2023-02-13T21:44:14.089Z,2.10
2023-02-13T21:46:41.873Z,2.10
2023-02-13T21:49:12.684Z,2.20
2023-02-13T21:51:39.497Z,2.20
2023-02-13T21:54:06.495Z,2.20
2023-02-13T21:56:36.182Z,2.20
2023-02-13T21:59:04.115Z,2.20
2023-02-13T22:01:45.297Z,2.20
2023-02-13T22:04:17.066Z,2.20
2023-02-13T22:06:48.089Z,2.20
2023-02-13T22:09:16.077Z,2.20
2023-02-13T22:11:43.229Z,2.20
2023-02-13T22:14:17.034Z,2.20
2023-02-13T22:16:44.988Z,2.10
2023-02-13T22:19:14.755Z,2.10
2023-02-13T22:21:56.586Z,2.00
2023-02-13T22:24:23.297Z,2.00
2023-02-13T22:26:49.934Z,2.00
2023-02-13T22:29:18.491Z,1.90
2023-02-13T22:31:45.607Z,1.90
2023-02-13T22:34:25.063Z,1.80
2023-02-13T22:36:51.701Z,1.80
2023-02-13T22:39:18.483Z,1.70
2023-02-13T22:41:48.255Z,1.70
2023-02-13T22:44:14.985Z,1.60
2023-02-13T22:46:41.725Z,1.50
2023-02-13T22:49:08.421Z,1.40
2023-02-13T22:51:36.276Z,1.40
2023-02-13T22:54:11.492Z,1.30
2023-02-13T22:56:38.217Z,1.30
2023-02-13T22:59:04.906Z,1.20
2023-02-13T23:01:31.701Z,1.10
2023-02-13T23:03:58.732Z,1.00
2023-02-13T23:06:25.694Z,1.00
2023-02-13T23:08:54.447Z,0.90
2023-02-13T23:11:43.280Z,0.90
2023-02-13T23:14:10.550Z,0.80
2023-02-13T23:17:00.191Z,0.70
2023-02-13T23:19:27.453Z,0.70
2023-02-13T23:21:54.546Z,0.60
2023-02-13T23:24:21.498Z,0.60
2023-02-13T23:26:48.142Z,0.50
2023-02-13T23:29:14.905Z,0.50
2023-02-13T23:31:41.849Z,0.50
2023-02-13T23:34:08.921Z,0.50
2023-02-13T23:36:35.636Z,0.40
2023-02-13T23:39:02.543Z,0.50
2023-02-13T23:41:32.281Z,0.50
2023-02-13T23:43:58.929Z,0.60
2023-02-13T23:46:25.776Z,0.60
2023-02-13T23:48:52.539Z,0.50
2023-02-13T23:51:21.203Z,0.50
2023-02-13T23:53:47.851Z,0.50
2023-02-13T23:56:14.872Z,0.50
2023-02-13T23:58:41.574Z,0.50
